Time;durP1;ratioP1;P1;durP2;ratioP2;P2;SDS_P1;SDS_P2;PMS_P1;PMS_P2;Temp;Humidity;BMP_temperature;BMP_pressure;BME280_temperature;BME280_humidity;BME280_pressure;Samples;Min_cycle;Max_cycle;Signal;HPM_P1;HPM_P2
2022/07/18 00:01:32;;;;;;;;;;;;;;;18.08;56.68;102426.94;5073635;28;19944;-35
2022/07/18 00:03:58;;;;;;;;;;;;;;;18.06;56.40;102429.94;5074338;28;19938;-36
2022/07/18 00:06:23;;;;;;;;;;;;;;;18.04;56.62;102425.78;5074143;28;19916;-36
2022/07/18 00:08:48;;;;;;;;;;;;;;;18.00;56.32;102420.78;5072368;28;19912;-36
2022/07/18 00:11:13;;;;;;;;;;;;;;;17.96;56.62;102419.63;5073770;28;19913;-35
2022/07/18 00:13:38;;;;;;;;;;;;;;;17.96;56.93;102419.63;5073737;28;19920;-36
2022/07/18 00:16:04;;;;;;;;;;;;;;;17.95;57.07;102415.19;5073703;28;19913;-35
2022/07/18 00:18:29;;;;;;;;;;;;;;;17.94;56.91;102412.72;5074415;28;20297;-35
2022/07/18 00:20:55;;;;;;;;;;;;;;;17.90;57.32;102414.25;5073569;28;19916;-36
2022/07/18 00:23:20;;;;;;;;;;;;;;;17.85;57.21;102405.94;5072943;28;19912;-36
2022/07/18 00:25:45;;;;;;;;;;;;;;;17.80;57.46;102409.41;5073238;28;19922;-36
2022/07/18 00:28:11;;;;;;;;;;;;;;;17.78;57.82;102406.09;5074095;28;19951;-36
2022/07/18 00:30:37;;;;;;;;;;;;;;;17.74;57.77;102403.00;5073120;28;19935;-35
2022/07/18 00:33:02;;;;;;;;;;;;;;;17.73;57.87;102403.25;5072217;28;20364;-35
2022/07/18 00:35:27;;;;;;;;;;;;;;;17.74;57.79;102403.00;5073644;28;20286;-35
2022/07/18 00:37:53;;;;;;;;;;;;;;;17.73;57.83;102390.41;5073673;28;20290;-36
2022/07/18 00:40:18;;;;;;;;;;;;;;;17.74;57.66;102399.44;5074033;28;20360;-36
2022/07/18 00:42:43;;;;;;;;;;;;;;;17.74;57.54;102393.97;5073345;28;19912;-35
2022/07/18 00:45:09;;;;;;;;;;;;;;;17.71;57.86;102389.78;5073292;28;19920;-35
2022/07/18 00:47:34;;;;;;;;;;;;;;;17.67;57.66;102391.34;5073223;28;19912;-36
2022/07/18 00:49:59;;;;;;;;;;;;;;;17.65;57.91;102388.00;5072921;28;19913;-35
2022/07/18 00:52:24;;;;;;;;;;;;;;;17.62;58.04;102379.47;5073872;28;19920;-35
2022/07/18 00:54:50;;;;;;;;;;;;;;;17.56;58.09;102386.69;5073308;28;19913;-35
2022/07/18 00:57:15;;;;;;;;;;;;;;;17.55;58.23;102385.03;5072975;28;20261;-35
2022/07/18 01:02:25;;;;;;;;;;;;;;;17.49;58.13;102386.84;5073000;28;19958;-35
2022/07/18 01:04:50;;;;;;;;;;;;;;;17.46;58.51;102389.22;5073160;28;19962;-36
2022/07/18 01:07:15;;;;;;;;;;;;;;;17.42;58.20;102379.81;5073692;28;20360;-36
2022/07/18 01:09:41;;;;;;;;;;;;;;;17.39;58.70;102375.69;5072820;28;20300;-36
2022/07/18 01:12:06;;;;;;;;;;;;;;;17.37;58.57;102372.38;5073350;28;19912;-36
2022/07/18 01:14:32;;;;;;;;;;;;;;;17.34;58.44;102374.75;5072613;28;20368;-36
2022/07/18 01:16:57;;;;;;;;;;;;;;;17.31;58.77;102367.81;5073461;28;19966;-36
2022/07/18 01:19:22;;;;;;;;;;;;;;;17.27;58.84;102371.28;5073263;28;20341;-36
2022/07/18 01:21:48;;;;;;;;;;;;;;;17.21;59.00;102371.16;5072961;28;20384;-36
2022/07/18 01:24:13;;;;;;;;;;;;;;;17.16;59.21;102370.22;5072643;28;20356;-36
2022/07/18 01:26:38;;;;;;;;;;;;;;;17.12;59.16;102379.97;5072933;28;19919;-36
2022/07/18 01:29:03;;;;;;;;;;;;;;;17.09;59.39;102369.53;5073224;28;19912;-36
2022/07/18 01:31:33;;;;;;;;;;;;;;;17.05;59.32;102374.63;5073025;28;20313;-36
2022/07/18 01:33:58;;;;;;;;;;;;;;;17.02;59.13;102368.78;5072852;28;20014;-36
2022/07/18 01:36:23;;;;;;;;;;;;;;;16.97;59.62;102367.59;5072608;28;20411;-36
2022/07/18 01:38:48;;;;;;;;;;;;;;;16.95;59.51;102374.38;5073063;28;19913;-36
2022/07/18 01:41:14;;;;;;;;;;;;;;;16.93;59.29;102368.31;5073519;28;19959;-36
2022/07/18 01:43:40;;;;;;;;;;;;;;;16.89;59.79;102367.13;5074128;28;19923;-36
2022/07/18 01:46:05;;;;;;;;;;;;;;;16.87;59.46;102367.34;5077331;28;20233;-36
2022/07/18 01:48:30;;;;;;;;;;;;;;;16.86;59.88;102370.31;5076397;28;19918;-36
2022/07/18 01:50:56;;;;;;;;;;;;;;;16.85;59.69;102371.41;5076455;28;19951;-36
2022/07/18 01:53:21;;;;;;;;;;;;;;;16.83;59.55;102370.78;5076214;28;19920;-36
2022/07/18 01:55:47;;;;;;;;;;;;;;;16.82;60.07;102369.97;5076283;28;19919;-36
2022/07/18 01:58:12;;;;;;;;;;;;;;;16.82;59.71;102369.13;5076487;28;20349;-36
2022/07/18 02:00:37;;;;;;;;;;;;;;;16.80;59.96;102366.66;5075944;28;19952;-36
2022/07/18 02:03:02;;;;;;;;;;;;;;;16.77;59.85;102372.56;5076273;28;19916;-36
2022/07/18 02:05:28;;;;;;;;;;;;;;;16.72;60.16;102362.34;5076653;28;19912;-36
2022/07/18 02:07:53;;;;;;;;;;;;;;;16.70;60.38;102367.19;5075394;28;19925;-36
2022/07/18 02:10:20;;;;;;;;;;;;;;;16.68;60.04;102361.13;5076786;28;19912;-36
2022/07/18 02:12:45;;;;;;;;;;;;;;;16.66;60.30;102355.06;5076534;28;19985;-36
2022/07/18 02:15:11;;;;;;;;;;;;;;;16.63;60.01;102350.06;5074667;28;20348;-36
2022/07/18 02:17:37;;;;;;;;;;;;;;;16.60;60.64;102350.56;5076387;28;19919;-36
2022/07/18 02:20:04;;;;;;;;;;;;;;;16.61;60.34;102340.47;5075838;28;20335;-36
2022/07/18 02:22:29;;;;;;;;;;;;;;;16.61;60.43;102335.81;5075529;28;19958;-36
2022/07/18 02:24:54;;;;;;;;;;;;;;;16.63;60.22;102333.69;5075767;28;19916;-36
2022/07/18 02:27:20;;;;;;;;;;;;;;;16.62;60.14;102337.47;5076056;28;19912;-36
2022/07/18 02:29:45;;;;;;;;;;;;;;;16.63;60.58;102338.31;5075579;28;20014;-36
2022/07/18 02:32:11;;;;;;;;;;;;;;;16.63;60.38;102343.78;5076358;28;19917;-36
2022/07/18 02:34:36;;;;;;;;;;;;;;;16.62;60.39;102348.41;5075498;28;19912;-36
2022/07/18 02:37:02;;;;;;;;;;;;;;;16.64;60.28;102346.28;5075557;28;20046;-36
2022/07/18 02:39:28;;;;;;;;;;;;;;;16.63;60.26;102344.59;5075435;28;19912;-36
2022/07/18 02:41:53;;;;;;;;;;;;;;;16.62;60.47;102337.47;5075954;28;19912;-36
2022/07/18 02:44:18;;;;;;;;;;;;;;;16.60;60.61;102339.63;5075385;28;19913;-36
2022/07/18 02:46:44;;;;;;;;;;;;;;;16.57;60.63;102333.78;5075732;28;19919;-36
2022/07/18 02:49:09;;;;;;;;;;;;;;;16.54;60.42;102337.81;5075049;28;20065;-36
2022/07/18 02:51:34;;;;;;;;;;;;;;;16.52;60.36;102331.78;5075500;28;19920;-36
2022/07/18 02:53:59;;;;;;;;;;;;;;;16.50;60.95;102342.09;5074949;28;19912;-36
2022/07/18 02:56:25;;;;;;;;;;;;;;;16.48;60.43;102342.31;5076033;28;20225;-36
2022/07/18 02:58:50;;;;;;;;;;;;;;;16.46;60.56;102332.72;5075959;28;20291;-36
2022/07/18 03:01:15;;;;;;;;;;;;;;;16.44;60.97;102329.38;5075156;28;19919;-36
2022/07/18 03:03:40;;;;;;;;;;;;;;;16.41;60.64;102330.69;5075202;28;19913;-36
2022/07/18 03:06:05;;;;;;;;;;;;;;;16.40;60.74;102325.47;5074855;28;19948;-36
2022/07/18 03:08:31;;;;;;;;;;;;;;;16.37;60.76;102328.66;5075250;28;19919;-36
2022/07/18 03:10:56;;;;;;;;;;;;;;;16.35;61.09;102323.44;5074851;28;19912;-36
2022/07/18 03:13:21;;;;;;;;;;;;;;;16.34;61.18;102326.38;5074592;28;19999;-36
2022/07/18 03:15:46;;;;;;;;;;;;;;;16.31;61.25;102315.94;5074609;28;19912;-36
2022/07/18 03:18:11;;;;;;;;;;;;;;;16.28;61.65;102314.50;5074529;28;19994;-36
2022/07/18 03:20:37;;;;;;;;;;;;;;;16.23;61.22;102317.94;5074717;28;20303;-36
2022/07/18 03:23:05;;;;;;;;;;;;;;;16.22;61.70;102318.16;5074894;28;20006;-36
2022/07/18 03:25:31;;;;;;;;;;;;;;;16.20;61.64;102312.09;5074832;28;19934;-36
2022/07/18 03:27:56;;;;;;;;;;;;;;;16.18;61.83;102309.59;5074455;28;20283;-36
2022/07/18 03:30:21;;;;;;;;;;;;;;;16.17;62.00;102313.41;5074759;28;19973;-36
2022/07/18 03:32:46;;;;;;;;;;;;;;;16.16;61.36;102306.28;5074750;28;19982;-36
2022/07/18 03:35:12;;;;;;;;;;;;;;;16.17;61.68;102305.22;5074310;28;19920;-36
2022/07/18 03:37:37;;;;;;;;;;;;;;;16.17;61.83;102313.41;5074103;28;19924;-36
2022/07/18 03:40:02;;;;;;;;;;;;;;;16.15;62.29;102303.78;5074200;28;19988;-36
2022/07/18 03:42:27;;;;;;;;;;;;;;;16.15;61.67;102310.09;5074728;28;19913;-36
2022/07/18 03:44:53;;;;;;;;;;;;;;;16.16;61.90;102300.00;5074120;28;19973;-36
2022/07/18 03:47:18;;;;;;;;;;;;;;;16.15;61.66;102299.19;5074469;28;20013;-36
2022/07/18 03:49:43;;;;;;;;;;;;;;;16.14;62.06;102302.94;5074465;28;19916;-36
2022/07/18 03:52:08;;;;;;;;;;;;;;;16.14;61.91;102308.41;5073905;28;20300;-36
2022/07/18 03:54:33;;;;;;;;;;;;;;;16.12;61.65;102302.34;5073753;28;19916;-36
2022/07/18 03:56:59;;;;;;;;;;;;;;;16.12;61.66;102304.25;5073939;28;19912;-36
2022/07/18 03:59:24;;;;;;;;;;;;;;;16.11;61.94;102292.50;5074659;28;20034;-36
2022/07/18 04:01:49;;;;;;;;;;;;;;;16.10;62.15;102292.72;5074064;28;19921;-36
2022/07/18 04:04:14;;;;;;;;;;;;;;;16.08;62.02;102290.25;5073494;28;19916;-36
2022/07/18 04:06:40;;;;;;;;;;;;;;;16.08;62.26;102298.44;5074458;28;19912;-36
2022/07/18 04:09:05;;;;;;;;;;;;;;;16.06;62.46;102299.75;5074209;28;20329;-36
2022/07/18 04:11:30;;;;;;;;;;;;;;;16.06;62.42;102295.09;5073458;28;19913;-36
2022/07/18 04:13:55;;;;;;;;;;;;;;;16.09;62.04;102296.53;5073321;28;19912;-36
2022/07/18 04:16:21;;;;;;;;;;;;;;;16.10;62.30;102282.63;5073773;28;19970;-36
2022/07/18 04:18:46;;;;;;;;;;;;;;;16.12;62.21;102287.88;5073903;28;19919;-36
2022/07/18 04:21:12;;;;;;;;;;;;;;;16.15;62.33;102282.81;5073843;28;20003;-36
2022/07/18 04:23:37;;;;;;;;;;;;;;;16.15;62.26;102284.66;5073302;28;19959;-36
2022/07/18 04:26:03;;;;;;;;;;;;;;;16.15;62.47;102281.94;5073681;28;20015;-35
2022/07/18 04:28:29;;;;;;;;;;;;;;;16.16;62.63;102283.63;5073288;28;19913;-35
2022/07/18 04:30:54;;;;;;;;;;;;;;;16.17;62.50;102272.47;5073512;28;19912;-35
2022/07/18 04:33:19;;;;;;;;;;;;;;;16.19;63.83;102278.50;5073183;28;20018;-35
2022/07/18 04:35:44;;;;;;;;;;;;;;;16.16;64.78;102276.28;5073375;28;19974;-36
2022/07/18 04:38:10;;;;;;;;;;;;;;;16.16;62.98;102264.53;5074185;28;19913;-36
2022/07/18 04:40:36;;;;;;;;;;;;;;;16.16;64.68;102272.72;5073388;28;20015;-35
2022/07/18 04:43:01;;;;;;;;;;;;;;;16.13;62.96;102263.09;5073185;28;19920;-35
2022/07/18 04:45:26;;;;;;;;;;;;;;;16.12;64.89;102269.63;5073038;28;19951;-35
2022/07/18 04:47:52;;;;;;;;;;;;;;;16.08;64.53;102270.31;5073028;28;20011;-35
2022/07/18 04:50:18;;;;;;;;;;;;;;;16.04;65.14;102269.94;5073340;28;20273;-35
2022/07/18 04:52:44;;;;;;;;;;;;;;;16.04;65.86;102272.66;5073676;28;19924;-35
2022/07/18 04:55:10;;;;;;;;;;;;;;;16.09;64.85;102272.78;5073492;28;19916;-35
2022/07/18 04:57:36;;;;;;;;;;;;;;;16.16;64.50;102273.53;5073754;28;19917;-35
2022/07/18 05:00:06;;;;;;;;;;;;;;;16.25;63.89;102273.19;5073509;28;20269;-35
2022/07/18 05:02:31;;;;;;;;;;;;;;;16.38;63.43;102260.16;5073553;28;19917;-36
2022/07/18 05:04:56;;;;;;;;;;;;;;;16.54;63.25;102257.78;5073562;28;19912;-36
2022/07/18 05:07:21;;;;;;;;;;;;;;;16.67;63.63;102260.31;5073819;28;19912;-36
2022/07/18 05:09:47;;;;;;;;;;;;;;;16.83;62.76;102269.72;5073238;28;20309;-35
2022/07/18 05:12:12;;;;;;;;;;;;;;;16.86;63.20;102266.50;5073930;28;20009;-35
2022/07/18 05:14:37;;;;;;;;;;;;;;;16.91;63.35;102272.91;5072986;28;19920;-35
2022/07/18 05:17:03;;;;;;;;;;;;;;;16.94;62.88;102271.63;5074023;28;19913;-35
2022/07/18 05:19:28;;;;;;;;;;;;;;;17.01;62.29;102274.22;5077003;28;19919;-35
2022/07/18 05:21:53;;;;;;;;;;;;;;;17.14;62.63;102263.03;5077485;28;19989;-35
2022/07/18 05:24:18;;;;;;;;;;;;;;;17.29;61.95;102273.47;5076966;28;20310;-35
2022/07/18 05:26:44;;;;;;;;;;;;;;;17.44;62.06;102268.31;5077227;28;19947;-35
2022/07/18 05:29:09;;;;;;;;;;;;;;;17.56;61.91;102271.81;5076509;28;20305;-36
2022/07/18 05:31:35;;;;;;;;;;;;;;;17.68;61.56;102277.28;5077241;28;19916;-36
2022/07/18 05:34:00;;;;;;;;;;;;;;;17.76;60.96;102279.63;5076358;28;20015;-36
2022/07/18 05:36:25;;;;;;;;;;;;;;;17.83;60.75;102268.56;5076684;28;19912;-36
2022/07/18 05:38:50;;;;;;;;;;;;;;;17.93;60.41;102268.75;5076572;28;19919;-36
2022/07/18 05:41:15;;;;;;;;;;;;;;;18.02;60.69;102270.00;5076561;28;19916;-36
2022/07/18 05:43:41;;;;;;;;;;;;;;;18.12;60.22;102278.41;5076481;28;20018;-36
2022/07/18 05:46:06;;;;;;;;;;;;;;;18.22;60.32;102278.56;5076474;28;19913;-36
2022/07/18 05:48:31;;;;;;;;;;;;;;;18.27;59.61;102280.56;5076913;28;19958;-36
2022/07/18 05:50:57;;;;;;;;;;;;;;;18.33;59.62;102279.56;5076392;28;19912;-36
2022/07/18 05:53:22;;;;;;;;;;;;;;;18.41;59.78;102273.69;5077025;28;20017;-36
2022/07/18 05:55:47;;;;;;;;;;;;;;;18.49;59.38;102280.66;5076664;28;20021;-36
2022/07/18 05:58:12;;;;;;;;;;;;;;;18.54;59.62;102283.47;5076879;28;19961;-36
2022/07/18 06:00:37;;;;;;;;;;;;;;;18.66;59.61;102277.91;5076901;28;19955;-36
2022/07/18 06:03:03;;;;;;;;;;;;;;;18.78;59.11;102275.94;5076390;28;19912;-36
2022/07/18 06:05:28;;;;;;;;;;;;;;;18.90;59.43;102276.66;5075818;28;20442;-36
2022/07/18 06:07:54;;;;;;;;;;;;;;;18.97;58.98;102277.31;5076012;28;19912;-36
2022/07/18 06:10:20;;;;;;;;;;;;;;;19.07;58.85;102281.28;5076004;28;19919;-36
2022/07/18 06:12:45;;;;;;;;;;;;;;;19.14;58.80;102277.28;5076180;28;19920;-36
2022/07/18 06:15:11;;;;;;;;;;;;;;;19.22;58.74;102268.59;5075856;28;20019;-36
2022/07/18 06:17:36;;;;;;;;;;;;;;;19.29;58.64;102266.50;5075805;28;19912;-36
2022/07/18 06:20:04;;;;;;;;;;;;;;;19.38;58.61;102260.59;5075794;28;19912;-36
2022/07/18 06:22:29;;;;;;;;;;;;;;;19.39;58.37;102268.56;5075455;28;20411;-36
2022/07/18 06:24:55;;;;;;;;;;;;;;;19.38;58.52;102264.16;5075740;28;19952;-36
2022/07/18 06:27:20;;;;;;;;;;;;;;;19.42;58.09;102264.44;5075641;28;20003;-36
2022/07/18 06:29:45;;;;;;;;;;;;;;;19.49;58.48;102263.19;5074579;28;19923;-36
2022/07/18 06:32:10;;;;;;;;;;;;;;;19.58;58.48;102260.00;5075607;28;19912;-36
2022/07/18 06:34:35;;;;;;;;;;;;;;;19.63;58.22;102252.69;5075507;28;19912;-36
2022/07/18 06:37:01;;;;;;;;;;;;;;;19.71;57.80;102243.97;5076310;28;19912;-36
2022/07/18 06:39:26;;;;;;;;;;;;;;;19.78;57.11;102244.59;5076133;28;20268;-36
2022/07/18 06:41:51;;;;;;;;;;;;;;;19.80;57.13;102242.41;5076042;28;20212;-36
2022/07/18 06:44:16;;;;;;;;;;;;;;;19.85;56.98;102247.13;5073895;28;20387;-35
2022/07/18 06:46:42;;;;;;;;;;;;;;;19.91;56.77;102245.25;5075612;28;19920;-35
2022/07/18 06:49:07;;;;;;;;;;;;;;;19.95;57.01;102239.00;5075838;28;20345;-35
2022/07/18 06:51:32;;;;;;;;;;;;;;;20.01;57.13;102243.47;5076003;28;19955;-36
2022/07/18 06:53:58;;;;;;;;;;;;;;;20.06;57.21;102237.19;5074892;28;19999;-35
2022/07/18 06:56:25;;;;;;;;;;;;;;;20.08;57.17;102240.50;5075156;28;19999;-35
2022/07/18 06:58:50;;;;;;;;;;;;;;;20.10;57.46;102231.97;5075127;28;19913;-35
2022/07/18 07:01:16;;;;;;;;;;;;;;;20.24;57.10;102244.19;5075370;28;19966;-35
2022/07/18 07:03:42;;;;;;;;;;;;;;;20.29;57.46;102242.31;5074763;28;19913;-35
2022/07/18 07:06:07;;;;;;;;;;;;;;;20.36;57.36;102233.88;5075266;28;20007;-35
2022/07/18 07:08:33;;;;;;;;;;;;;;;20.46;57.09;102241.34;5074718;28;19957;-35
2022/07/18 07:10:58;;;;;;;;;;;;;;;20.53;57.13;102241.97;5074806;28;19923;-36
2022/07/18 07:13:24;;;;;;;;;;;;;;;20.61;57.11;102246.97;5074668;28;19920;-35
2022/07/18 07:15:49;;;;;;;;;;;;;;;20.70;56.71;102242.66;5075121;28;19916;-35
2022/07/18 07:18:14;;;;;;;;;;;;;;;20.77;56.69;102240.47;5075675;28;19959;-35
2022/07/18 07:20:39;;;;;;;;;;;;;;;20.83;56.43;102244.09;5074859;28;20008;-35
2022/07/18 07:23:07;;;;;;;;;;;;;;;20.89;56.48;102247.72;5074538;28;19917;-36
2022/07/18 07:25:33;;;;;;;;;;;;;;;20.97;56.11;102238.94;5074305;28;20280;-35
2022/07/18 07:27:58;;;;;;;;;;;;;;;21.07;56.78;102244.50;5074210;28;19912;-35
2022/07/18 07:30:24;;;;;;;;;;;;;;;21.15;56.32;102238.50;5074644;28;19913;-35
2022/07/18 07:32:50;;;;;;;;;;;;;;;21.26;56.46;102236.59;5074370;28;19912;-35
2022/07/18 07:35:16;;;;;;;;;;;;;;;21.37;56.19;102237.50;5074288;28;19923;-35
2022/07/18 07:37:43;;;;;;;;;;;;;;;21.46;55.87;102233.13;5073737;28;20048;-36
2022/07/18 07:40:09;;;;;;;;;;;;;;;21.53;55.60;102236.47;5073597;28;19912;-36
2022/07/18 07:42:34;;;;;;;;;;;;;;;21.58;55.59;102234.53;5073899;28;19912;-36
2022/07/18 07:44:59;;;;;;;;;;;;;;;21.66;53.62;102237.84;5074476;28;19912;-36
2022/07/18 07:47:24;;;;;;;;;;;;;;;21.78;54.23;102239.25;5073408;28;20007;-36
2022/07/18 07:49:49;;;;;;;;;;;;;;;21.90;54.67;102229.91;5074163;28;20380;-36
2022/07/18 07:52:17;;;;;;;;;;;;;;;22.02;53.34;102233.25;5073809;28;19927;-36
2022/07/18 07:54:44;;;;;;;;;;;;;;;22.13;53.84;102225.84;5073871;28;19912;-36
2022/07/18 07:57:09;;;;;;;;;;;;;;;22.20;52.76;102218.09;5074282;28;19912;-36
2022/07/18 07:59:34;;;;;;;;;;;;;;;22.31;52.19;102214.25;5073683;28;20457;-36
2022/07/18 08:02:00;;;;;;;;;;;;;;;22.44;52.51;102202.66;5073893;28;19918;-36
2022/07/18 08:04:25;;;;;;;;;;;;;;;22.56;50.91;102205.94;5075353;28;19916;-36
2022/07/18 08:06:50;;;;;;;;;;;;;;;22.65;51.79;102195.19;5079214;28;19927;-35
2022/07/18 08:09:16;;;;;;;;;;;;;;;22.73;51.19;102197.34;5073258;28;19916;-35
2022/07/18 08:11:41;;;;;;;;;;;;;;;22.81;49.84;102188.50;5073318;28;19916;-36
2022/07/18 08:14:06;;;;;;;;;;;;;;;22.94;49.83;102186.31;5073381;28;19956;-35
2022/07/18 08:16:31;;;;;;;;;;;;;;;23.06;50.33;102178.50;5073415;28;19938;-35
2022/07/18 08:18:57;;;;;;;;;;;;;;;23.19;48.73;102183.44;5072878;28;20042;-35
2022/07/18 08:21:22;;;;;;;;;;;;;;;23.33;49.55;102194.66;5073312;28;19939;-36
2022/07/18 08:23:48;;;;;;;;;;;;;;;23.48;48.00;102188.22;5073194;28;19932;-36
2022/07/18 08:26:13;;;;;;;;;;;;;;;23.61;47.64;102193.09;5073012;28;19961;-36
2022/07/18 08:28:38;;;;;;;;;;;;;;;23.75;45.63;102202.41;5073549;28;19912;-36
2022/07/18 08:31:03;;;;;;;;;;;;;;;23.89;45.80;102202.59;5073834;28;19919;-36
2022/07/18 08:33:29;;;;;;;;;;;;;;;24.04;46.94;102208.00;5072039;28;19925;-36
2022/07/18 08:35:54;;;;;;;;;;;;;;;24.20;45.40;102205.09;5073053;28;19983;-36
2022/07/18 08:38:19;;;;;;;;;;;;;;;24.36;46.73;102213.00;5073467;28;19912;-36
2022/07/18 08:40:46;;;;;;;;;;;;;;;24.49;44.59;102202.38;5073131;28;19966;-36
2022/07/18 08:43:12;;;;;;;;;;;;;;;24.60;42.37;102192.88;5073304;28;20008;-36
2022/07/18 08:45:37;;;;;;;;;;;;;;;24.71;43.82;102194.38;5073155;28;19952;-36
2022/07/18 08:48:02;;;;;;;;;;;;;;;24.86;42.65;102191.44;5073851;28;20344;-36
2022/07/18 08:50:28;;;;;;;;;;;;;;;25.04;43.33;102192.63;5073192;28;19920;-36
2022/07/18 08:52:53;;;;;;;;;;;;;;;25.20;43.75;102189.69;5073602;28;20413;-36
2022/07/18 08:55:19;;;;;;;;;;;;;;;25.39;42.74;102188.56;5073694;28;19959;-36
2022/07/18 08:57:44;;;;;;;;;;;;;;;25.54;41.19;102195.00;5072953;28;19916;-36
2022/07/18 09:00:10;;;;;;;;;;;;;;;25.66;42.05;102192.59;5071554;28;19920;-35
2022/07/18 09:02:35;;;;;;;;;;;;;;;25.77;41.05;102185.81;5073145;28;19946;-36
2022/07/18 09:05:02;;;;;;;;;;;;;;;25.90;40.22;102185.03;5073125;28;19912;-36
2022/07/18 09:07:32;;;;;;;;;;;;;;;26.02;37.32;102184.56;5073337;28;19913;-36
2022/07/18 09:09:58;;;;;;;;;;;;;;;26.03;39.33;102185.38;5072992;28;19919;-35
2022/07/18 09:12:25;;;;;;;;;;;;;;;26.12;40.03;102187.16;5073042;28;20021;-35
2022/07/18 09:14:50;;;;;;;;;;;;;;;26.31;39.80;102184.34;5073095;28;19912;-35
2022/07/18 09:17:15;;;;;;;;;;;;;;;26.51;39.07;102185.13;5073589;28;20340;-36
2022/07/18 09:20:01;;;;;;;;;;;;;;;26.73;40.67;102184.38;5073627;28;19913;-36
2022/07/18 09:22:28;;;;;;;;;;;;;;;26.95;35.89;102187.28;5073338;28;19912;-36
2022/07/18 09:24:58;;;;;;;;;;;;;;;27.06;37.20;102185.91;5072900;28;20450;-36
2022/07/18 09:27:24;;;;;;;;;;;;;;;27.14;38.46;102188.00;5073159;28;19919;-36
2022/07/18 09:30:08;;;;;;;;;;;;;;;27.27;37.51;102186.31;5073102;28;19999;-36
2022/07/18 09:32:34;;;;;;;;;;;;;;;27.34;37.79;102192.28;5072553;28;20368;-36
2022/07/18 09:35:13;;;;;;;;;;;;;;;27.44;38.97;102185.66;5072935;28;19959;-36
2022/07/18 09:37:41;;;;;;;;;;;;;;;27.65;36.22;102191.56;5072928;28;19919;-36
2022/07/18 09:40:23;;;;;;;;;;;;;;;27.78;37.58;102193.50;5072980;28;19913;-36
2022/07/18 09:42:55;;;;;;;;;;;;;;;27.94;37.59;102188.38;5072681;28;20375;-36
2022/07/18 09:45:21;;;;;;;;;;;;;;;28.06;35.41;102190.56;5072490;28;20506;-36
2022/07/18 09:47:51;;;;;;;;;;;;;;;28.13;36.49;102174.28;5073015;28;20288;-36
2022/07/18 09:50:21;;;;;;;;;;;;;;;28.27;37.84;102180.56;5072755;28;19912;-35
2022/07/18 09:52:55;;;;;;;;;;;;;;;28.38;35.69;102184.75;5073026;28;19924;-36
2022/07/18 09:55:20;;;;;;;;;;;;;;;28.44;36.18;102185.41;5073349;28;20011;-35
2022/07/18 09:57:55;;;;;;;;;;;;;;;28.49;36.00;102179.72;5072941;28;20364;-35
2022/07/18 10:00:21;;;;;;;;;;;;;;;28.58;36.32;102175.00;5072568;28;20368;-35
2022/07/18 10:02:46;;;;;;;;;;;;;;;28.72;35.43;102175.72;5072587;28;19912;-37
2022/07/18 10:05:11;;;;;;;;;;;;;;;28.85;36.38;102171.19;5074952;28;19912;-36
2022/07/18 10:07:37;;;;;;;;;;;;;;;28.89;35.49;102177.75;5076391;28;19922;-36
2022/07/18 10:10:02;;;;;;;;;;;;;;;28.94;37.57;102177.63;5075879;28;20379;-36
2022/07/18 10:12:27;;;;;;;;;;;;;;;29.05;36.01;102174.53;5076314;28;19919;-36
2022/07/18 10:14:52;;;;;;;;;;;;;;;29.16;36.21;102170.28;5076209;28;20308;-36
2022/07/18 10:17:20;;;;;;;;;;;;;;;29.27;35.97;102168.81;5076083;28;19912;-36
2022/07/18 10:19:45;;;;;;;;;;;;;;;29.31;33.18;102169.81;5075875;28;19923;-36
2022/07/18 10:22:10;;;;;;;;;;;;;;;29.36;34.82;102171.63;5076229;28;19913;-36
2022/07/18 10:24:38;;;;;;;;;;;;;;;29.48;32.78;102171.78;5075589;28;20373;-36
2022/07/18 10:27:20;;;;;;;;;;;;;;;29.56;34.25;102173.78;5075835;28;19912;-36
2022/07/18 10:30:03;;;;;;;;;;;;;;;29.70;35.00;102162.47;5075826;28;19974;-36
2022/07/18 10:32:33;;;;;;;;;;;;;;;29.79;35.37;102168.03;5076302;28;20061;-36
2022/07/18 10:34:58;;;;;;;;;;;;;;;29.83;34.32;102167.03;5075620;28;19916;-36
2022/07/18 10:37:24;;;;;;;;;;;;;;;29.91;34.19;102165.38;5075684;28;19986;-36
2022/07/18 10:39:50;;;;;;;;;;;;;;;30.00;35.65;102160.59;5075316;28;20338;-36
2022/07/18 10:42:18;;;;;;;;;;;;;;;30.10;32.93;102156.63;5075602;28;19923;-36
2022/07/18 10:44:44;;;;;;;;;;;;;;;30.12;33.75;102159.94;5075475;28;19919;-36
2022/07/18 10:47:20;;;;;;;;;;;;;;;30.15;33.04;102159.28;5075345;28;19912;-36
2022/07/18 10:49:45;;;;;;;;;;;;;;;30.14;33.97;102157.66;5075774;28;19912;-36
2022/07/18 10:52:23;;;;;;;;;;;;;;;30.18;34.22;102161.41;5075300;28;20288;-36
2022/07/18 10:55:08;;;;;;;;;;;;;;;30.32;34.35;102152.84;5075554;28;20315;-36
2022/07/18 10:57:40;;;;;;;;;;;;;;;30.42;33.29;102158.88;5075608;28;19967;-36
2022/07/18 11:00:08;;;;;;;;;;;;;;;30.51;32.61;102161.63;5075238;28;19967;-36
2022/07/18 11:02:38;;;;;;;;;;;;;;;30.59;32.51;102157.94;5074907;28;20007;-36
2022/07/18 11:05:26;;;;;;;;;;;;;;;30.60;32.45;102148.44;5075604;28;20362;-36
2022/07/18 11:07:57;;;;;;;;;;;;;;;30.67;33.48;102153.50;5075347;28;20366;-36
2022/07/18 11:10:41;;;;;;;;;;;;;;;30.78;33.62;102143.59;5074973;28;20046;-36
2022/07/18 11:13:24;;;;;;;;;;;;;;;30.89;34.10;102149.59;5075723;28;19955;-41
2022/07/18 11:16:02;;;;;;;;;;;;;;;31.00;34.73;102143.31;5075054;28;19919;-36
2022/07/18 11:18:27;;;;;;;;;;;;;;;31.00;32.15;102140.50;5075109;28;19919;-36
2022/07/18 11:20:53;;;;;;;;;;;;;;;30.96;32.99;102145.13;5074776;28;19912;-36
2022/07/18 11:23:20;;;;;;;;;;;;;;;31.03;34.17;102134.22;5075377;28;20003;-36
2022/07/18 11:25:46;;;;;;;;;;;;;;;31.07;32.58;102128.78;5074584;28;19916;-36
2022/07/18 11:28:11;;;;;;;;;;;;;;;31.12;31.62;102139.75;5075146;28;19917;-36
2022/07/18 11:30:38;;;;;;;;;;;;;;;31.16;33.24;102139.91;5074264;28;19938;-36
2022/07/18 11:33:04;;;;;;;;;;;;;;;31.27;33.32;102130.78;5075233;28;19966;-36
2022/07/18 11:35:29;;;;;;;;;;;;;;;31.41;32.61;102127.72;5074386;28;19916;-36
2022/07/18 11:37:55;;;;;;;;;;;;;;;31.57;32.37;102129.88;5075348;28;19923;-36
2022/07/18 11:40:21;;;;;;;;;;;;;;;31.70;31.80;102128.75;5074766;28;19912;-36
2022/07/18 11:42:47;;;;;;;;;;;;;;;31.78;33.23;102122.28;5074117;28;19912;-36
2022/07/18 11:45:13;;;;;;;;;;;;;;;31.91;33.51;102129.53;5074291;28;19970;-36
2022/07/18 11:47:47;;;;;;;;;;;;;;;32.04;32.55;102122.00;5075095;28;19932;-37
2022/07/18 11:50:13;;;;;;;;;;;;;;;31.85;29.82;102122.53;5074169;28;19913;-37
2022/07/18 11:52:38;;;;;;;;;;;;;;;31.89;31.13;102114.28;5075095;28;19916;-37
2022/07/18 11:55:04;;;;;;;;;;;;;;;31.97;30.68;102121.78;5074954;28;19912;-37
2022/07/18 11:57:30;;;;;;;;;;;;;;;32.00;32.81;102116.28;5073942;28;19913;-36
2022/07/18 11:59:56;;;;;;;;;;;;;;;31.97;31.82;102114.19;5073775;28;19913;-36
2022/07/18 12:02:39;;;;;;;;;;;;;;;31.94;31.67;102114.88;5073769;28;19920;-36
2022/07/18 12:05:05;;;;;;;;;;;;;;;31.93;32.25;102118.03;5073627;28;19923;-36
2022/07/18 12:07:30;;;;;;;;;;;;;;;31.92;32.48;102106.03;5074007;28;19916;-36
2022/07/18 12:09:55;;;;;;;;;;;;;;;31.95;31.75;102105.31;5073753;28;19916;-36
2022/07/18 12:12:21;;;;;;;;;;;;;;;31.99;31.27;102103.47;5074412;28;19974;-36
2022/07/18 12:14:57;;;;;;;;;;;;;;;32.11;31.37;102099.84;5073715;28;19966;-36
2022/07/18 12:17:22;;;;;;;;;;;;;;;32.26;28.27;102101.19;5073711;28;19919;-36
2022/07/18 12:19:47;;;;;;;;;;;;;;;32.24;28.28;102097.91;5073423;28;19912;-36
2022/07/18 12:22:12;;;;;;;;;;;;;;;32.33;30.53;102092.19;5073706;28;19913;-36
2022/07/18 12:24:49;;;;;;;;;;;;;;;32.49;29.43;102093.13;5073623;28;19912;-36
2022/07/18 12:27:21;;;;;;;;;;;;;;;32.57;29.79;102097.00;5073514;28;19927;-36
2022/07/18 12:29:56;;;;;;;;;;;;;;;32.63;29.34;102087.19;5073266;28;20384;-36
2022/07/18 12:32:24;;;;;;;;;;;;;;;32.77;30.23;102087.63;5072616;28;20276;-36
2022/07/18 12:34:56;;;;;;;;;;;;;;;32.90;31.01;102091.25;5073750;28;19919;-36